Time;durP1;ratioP1;P1;durP2;ratioP2;P2;SDS_P1;SDS_P2;PMS_P1;PMS_P2;Temp;Humidity;BMP_temperature;BMP_pressure;BME280_temperature;BME280_humidity;BME280_pressure;Samples;Min_cycle;Max_cycle;Signal;HPM_P1;HPM_P2
2023/06/11 00:00:44;;;;;;;7.90;6.40;;;16.40;99.90;;;;;;5042630;28;20056;-77
2023/06/11 00:03:10;;;;;;;8.55;6.80;;;16.40;99.90;;;;;;5039103;28;20040;-77
2023/06/11 00:05:37;;;;;;;9.13;6.63;;;16.40;99.90;;;;;;5038529;28;20021;-79
2023/06/11 00:08:03;;;;;;;8.40;6.93;;;16.30;99.90;;;;;;5040569;28;20053;-78
2023/06/11 00:10:32;;;;;;;8.80;6.80;;;16.30;99.90;;;;;;5041518;28;20063;-78
2023/06/11 00:13:01;;;;;;;10.35;6.97;;;16.30;99.90;;;;;;5036619;28;20059;-81
2023/06/11 00:15:27;;;;;;;8.82;7.00;;;16.40;99.90;;;;;;5058683;28;20079;-78
2023/06/11 00:17:53;;;;;;;8.52;6.63;;;16.50;99.90;;;;;;5025451;28;20053;-78
2023/06/11 00:20:24;;;;;;;8.57;6.60;;;16.40;99.90;;;;;;5039519;28;20233;-77
2023/06/11 00:22:50;;;;;;;9.50;6.95;;;16.50;99.90;;;;;;5057649;28;20026;-78
2023/06/11 00:25:31;;;;;;;7.53;6.32;;;16.60;99.90;;;;;;5038372;28;20436;-78
2023/06/11 00:28:06;;;;;;;9.88;6.55;;;16.60;99.90;;;;;;5043589;28;20021;-77
2023/06/11 00:30:35;;;;;;;10.45;6.63;;;16.60;99.90;;;;;;5062848;28;20037;-77
2023/06/11 00:33:06;;;;;;;7.72;6.45;;;16.50;99.90;;;;;;5058225;28;20029;-77
2023/06/11 00:35:32;;;;;;;7.38;6.45;;;16.50;99.90;;;;;;5060014;28;20025;-78
2023/06/11 00:37:58;;;;;;;10.63;7.13;;;16.60;99.90;;;;;;5058379;28;20037;-78
2023/06/11 00:40:24;;;;;;;8.32;6.90;;;16.30;99.90;;;;;;5057459;28;20029;-78
2023/06/11 00:42:50;;;;;;;7.57;6.32;;;16.00;99.90;;;;;;5043942;28;20033;-78
2023/06/11 00:45:22;;;;;;;8.05;6.63;;;15.80;99.90;;;;;;5059780;28;20034;-77
2023/06/11 00:47:52;;;;;;;8.93;7.18;;;15.80;99.90;;;;;;5058499;28;20021;-77
2023/06/11 00:50:19;;;;;;;9.35;7.68;;;15.70;99.90;;;;;;5059950;28;20021;-78
2023/06/11 00:52:46;;;;;;;9.77;8.05;;;15.60;99.90;;;;;;5054123;28;20048;-78
2023/06/11 00:55:30;;;;;;;8.95;7.65;;;15.40;99.90;;;;;;5055613;28;20041;-81
2023/06/11 00:58:02;;;;;;;9.07;7.55;;;15.40;99.90;;;;;;5062289;28;20033;-77
2023/06/11 01:00:36;;;;;;;10.45;7.35;;;15.40;99.90;;;;;;5058131;28;20085;-77
2023/06/11 01:03:10;;;;;;;8.80;7.13;;;15.40;99.90;;;;;;5046612;28;20116;-76
2023/06/11 01:05:44;;;;;;;9.35;6.85;;;15.50;99.90;;;;;;5051897;28;20025;-76
2023/06/11 01:08:19;;;;;;;10.13;6.80;;;15.70;99.90;;;;;;5052585;28;20608;-75
2023/06/11 01:10:47;;;;;;;10.60;7.38;;;15.60;99.90;;;;;;5047682;28;20038;-75
2023/06/11 01:13:22;;;;;;;9.33;6.73;;;15.60;99.90;;;;;;5047643;28;21052;-76
2023/06/11 01:15:57;;;;;;;8.38;6.88;;;15.70;99.90;;;;;;5050871;28;20029;-75
2023/06/11 01:18:32;;;;;;;8.82;6.97;;;15.70;99.90;;;;;;5038636;28;20030;-75
2023/06/11 01:21:29;;;;;;;10.60;7.03;;;15.60;99.90;;;;;;5036028;28;20075;-75
2023/06/11 01:24:13;;;;;;;8.02;6.75;;;15.60;99.90;;;;;;5042747;28;20377;-75
2023/06/11 01:27:05;;;;;;;9.35;6.88;;;15.60;99.90;;;;;;5046961;28;20040;-75
2023/06/11 01:29:37;;;;;;;9.82;7.53;;;15.30;99.90;;;;;;5045917;28;20037;-75
2023/06/11 01:32:06;;;;;;;10.02;7.57;;;15.20;99.90;;;;;;5024004;28;20393;-75
2023/06/11 01:34:32;;;;;;;14.10;7.82;;;15.20;99.90;;;;;;5047076;28;20025;-76
2023/06/11 01:36:59;;;;;;;8.07;6.63;;;15.20;99.90;;;;;;5035874;28;20071;-76
2023/06/11 01:39:25;;;;;;;8.50;6.50;;;15.20;99.90;;;;;;5053473;28;20547;-74
2023/06/11 01:41:51;;;;;;;11.55;7.18;;;15.20;99.90;;;;;;5049256;28;20063;-76
2023/06/11 01:44:25;;;;;;;9.85;7.10;;;15.30;99.90;;;;;;5033229;28;20040;-76
2023/06/11 01:46:51;;;;;;;9.18;7.25;;;15.30;99.90;;;;;;5047777;28;20029;-75
2023/06/11 01:49:17;;;;;;;10.40;6.57;;;15.20;99.90;;;;;;5050211;28;20037;-76
2023/06/11 01:51:43;;;;;;;8.10;6.60;;;15.30;99.90;;;;;;5036517;28;20128;-74
2023/06/11 01:54:09;;;;;;;8.63;6.85;;;15.20;99.90;;;;;;5035977;28;20045;-75
2023/06/11 01:56:35;;;;;;;7.70;6.82;;;15.10;99.90;;;;;;5045575;28;20020;-74
2023/06/11 01:59:04;;;;;;;8.68;7.28;;;15.00;99.90;;;;;;5044602;28;20044;-74
2023/06/11 02:01:32;;;;;;;8.73;6.75;;;15.10;99.90;;;;;;5047241;28;20441;-75
2023/06/11 02:04:06;;;;;;;8.48;6.85;;;15.10;99.90;;;;;;5044360;28;20026;-76
2023/06/11 02:06:32;;;;;;;7.90;6.57;;;15.10;99.90;;;;;;5048699;28;20060;-75
2023/06/11 02:08:58;;;;;;;8.93;6.68;;;15.00;99.90;;;;;;5030388;28;20464;-75
2023/06/11 02:11:32;;;;;;;9.80;7.05;;;15.00;99.90;;;;;;5046547;28;20033;-76
2023/06/11 02:13:58;;;;;;;9.48;6.53;;;15.00;99.90;;;;;;5047300;28;20026;-75
2023/06/11 02:16:23;;;;;;;8.88;7.10;;;14.90;99.90;;;;;;5043311;28;20029;-75
2023/06/11 02:18:49;;;;;;;13.52;7.65;;;15.00;99.90;;;;;;5045257;28;20033;-75
2023/06/11 02:21:15;;;;;;;8.10;6.93;;;15.00;99.90;;;;;;5045134;28;20100;-75
2023/06/11 02:23:47;;;;;;;11.10;6.88;;;15.00;99.90;;;;;;5048456;28;20052;-74
2023/06/11 02:26:12;;;;;;;8.65;6.82;;;14.90;99.90;;;;;;5044429;28;20080;-75
2023/06/11 02:28:38;;;;;;;10.05;7.60;;;14.80;99.90;;;;;;5042419;28;20037;-75
2023/06/11 02:31:04;;;;;;;9.85;6.88;;;14.80;99.90;;;;;;5038642;28;20504;-74
2023/06/11 02:33:36;;;;;;;7.63;6.57;;;14.90;99.90;;;;;;5051582;28;20029;-75
2023/06/11 02:36:03;;;;;;;8.32;6.53;;;15.00;99.90;;;;;;5031209;28;20037;-75
2023/06/11 02:38:31;;;;;;;7.72;6.15;;;15.20;99.90;;;;;;5031715;28;20037;-76
2023/06/11 02:41:03;;;;;;;10.48;6.60;;;15.30;99.90;;;;;;5031118;28;20452;-74
2023/06/11 02:43:37;;;;;;;8.25;6.65;;;15.30;99.90;;;;;;5050715;28;20079;-74
2023/06/11 02:46:09;;;;;;;9.65;6.85;;;15.30;99.90;;;;;;5045864;28;20361;-75
2023/06/11 02:48:38;;;;;;;8.63;6.80;;;15.30;99.90;;;;;;5025331;28;20029;-75
2023/06/11 02:51:17;;;;;;;7.65;6.50;;;15.30;99.90;;;;;;5045871;28;20029;-74
2023/06/11 02:53:43;;;;;;;9.32;6.50;;;15.30;99.90;;;;;;5046537;28;20041;-74
2023/06/11 02:56:09;;;;;;;8.60;7.10;;;15.30;99.90;;;;;;5049379;28;20516;-75
2023/06/11 02:58:35;;;;;;;9.52;6.43;;;15.30;99.90;;;;;;5048330;28;20038;-76
2023/06/11 03:01:06;;;;;;;8.32;6.60;;;15.30;99.90;;;;;;5049610;28;20060;-74
2023/06/11 03:03:35;;;;;;;8.98;6.40;;;15.40;99.90;;;;;;5049765;28;20048;-75
2023/06/11 03:06:09;;;;;;;8.48;6.53;;;15.30;99.90;;;;;;5032366;28;20029;-76
2023/06/11 03:08:43;;;;;;;9.52;6.63;;;15.30;99.90;;;;;;5046469;28;20048;-75
2023/06/11 03:11:15;;;;;;;8.32;6.60;;;15.30;99.90;;;;;;5048756;28;20034;-75
2023/06/11 03:13:47;;;;;;;8.73;6.53;;;15.20;99.90;;;;;;5044021;28;20070;-75
2023/06/11 03:16:13;;;;;;;8.88;7.03;;;15.20;99.90;;;;;;5030015;28;20093;-75
2023/06/11 03:18:48;;;;;;;10.30;6.90;;;15.10;99.90;;;;;;5049007;28;20036;-74
2023/06/11 03:21:23;;;;;;;9.52;7.25;;;15.10;99.90;;;;;;5045671;28;20087;-75
2023/06/11 03:23:49;;;;;;;9.13;7.10;;;14.80;99.90;;;;;;5029564;28;20017;-75
2023/06/11 03:26:15;;;;;;;8.25;7.32;;;14.60;99.90;;;;;;5032846;28;20067;-75
2023/06/11 03:28:44;;;;;;;10.88;7.00;;;14.50;99.90;;;;;;5031627;28;20025;-76
2023/06/11 03:31:15;;;;;;;9.27;7.30;;;14.50;99.90;;;;;;5039415;28;20040;-75
2023/06/11 03:34:01;;;;;;;11.52;8.13;;;14.50;99.90;;;;;;5032291;28;20101;-74
2023/06/11 03:36:36;;;;;;;9.10;7.18;;;14.50;99.90;;;;;;5024529;28;20036;-75
2023/06/11 03:39:23;;;;;;;10.43;7.85;;;14.60;99.90;;;;;;5027570;28;20059;-75
2023/06/11 03:42:02;;;;;;;10.70;7.60;;;14.60;99.90;;;;;;5048225;28;20040;-76
2023/06/11 03:44:40;;;;;;;8.40;6.72;;;14.50;99.90;;;;;;5045785;28;20040;-74
2023/06/11 03:47:09;;;;;;;9.85;7.00;;;14.50;99.90;;;;;;5044329;28;20052;-75
2023/06/11 03:49:37;;;;;;;8.88;6.90;;;14.60;99.90;;;;;;5049306;28;20032;-75
2023/06/11 03:52:17;;;;;;;10.23;7.20;;;14.60;99.90;;;;;;5046661;28;20128;-74
2023/06/11 03:54:56;;;;;;;11.32;7.10;;;14.70;99.90;;;;;;5048250;28;20020;-75
2023/06/11 03:57:27;;;;;;;9.45;7.65;;;14.80;99.90;;;;;;5046718;28;20025;-76
2023/06/11 03:59:53;;;;;;;12.40;7.88;;;14.80;99.90;;;;;;5024116;28;20150;-75
2023/06/11 04:02:19;;;;;;;10.48;7.97;;;14.70;99.90;;;;;;5046030;28;20072;-74
2023/06/11 04:04:45;;;;;;;12.02;7.78;;;14.60;99.90;;;;;;5028766;28;20030;-75
2023/06/11 04:07:14;;;;;;;9.88;7.55;;;14.60;99.90;;;;;;5048745;28;20479;-75
2023/06/11 04:09:39;;;;;;;11.57;7.88;;;14.60;99.90;;;;;;5052092;28;20485;-75
2023/06/11 04:12:18;;;;;;;11.20;8.27;;;14.60;99.90;;;;;;5048340;28;20043;-76
2023/06/11 04:15:09;;;;;;;;;;;14.70;99.90;;;;;;5031591;28;20544;-74
2023/06/11 04:17:39;;;;;;;11.15;8.13;;;14.70;99.90;;;;;;5040649;28;20357;-75
2023/06/11 04:20:17;;;;;;;9.10;7.78;;;14.70;99.90;;;;;;5046777;28;20123;-75
2023/06/11 04:22:52;;;;;;;;;;;14.70;99.90;;;;;;5047319;28;20029;-75
2023/06/11 04:25:17;;;;;;;9.10;7.78;;;14.80;99.90;;;;;;5041272;28;19923;-75
2023/06/11 04:27:43;;;;;;;10.23;7.13;;;14.90;99.90;;;;;;5029228;28;20136;-76
2023/06/11 04:30:22;;;;;;;11.02;7.90;;;14.90;99.90;;;;;;5026176;28;20033;-75
2023/06/11 04:32:54;;;;;;;9.68;7.35;;;14.90;99.90;;;;;;5030351;28;20586;-75
2023/06/11 04:35:26;;;;;;;10.32;7.97;;;14.90;99.90;;;;;;5045016;28;20572;-75
2023/06/11 04:37:55;;;;;;;10.35;7.57;;;15.00;99.90;;;;;;5047112;28;20025;-75
2023/06/11 04:40:27;;;;;;;10.65;8.15;;;15.10;99.90;;;;;;5043894;28;20021;-75
2023/06/11 04:43:07;;;;;;;10.32;7.88;;;15.20;99.90;;;;;;5048593;28;20036;-75
2023/06/11 04:45:38;;;;;;;9.80;7.35;;;15.30;99.90;;;;;;5045035;28;20033;-75
2023/06/11 04:48:07;;;;;;;10.05;7.88;;;15.40;99.90;;;;;;5048590;28;20033;-74
2023/06/11 04:50:52;;;;;;;9.68;7.93;;;15.50;99.90;;;;;;5045515;28;20088;-75
2023/06/11 04:53:22;;;;;;;9.57;7.72;;;15.60;99.90;;;;;;5023212;28;20049;-75
2023/06/11 04:56:18;;;;;;;11.65;7.90;;;15.70;99.90;;;;;;5035484;28;20030;-74
2023/06/11 04:58:44;;;;;;;11.45;8.20;;;15.90;99.90;;;;;;5024316;28;20084;-75
2023/06/11 05:01:22;;;;;;;10.57;8.10;;;15.90;99.90;;;;;;5029531;28;20054;-75
2023/06/11 05:03:51;;;;;;;10.32;8.02;;;16.00;99.90;;;;;;5037550;28;20041;-75
2023/06/11 05:06:21;;;;;;;10.77;8.07;;;16.10;99.90;;;;;;5033262;28;20029;-74
2023/06/11 05:08:50;;;;;;;11.20;8.43;;;16.20;99.90;;;;;;5032160;28;20037;-76
2023/06/11 05:11:19;;;;;;;9.30;7.70;;;16.30;99.90;;;;;;5033610;28;20060;-74
2023/06/11 05:13:56;;;;;;;10.73;8.25;;;16.30;99.90;;;;;;5030400;28;20029;-74
2023/06/11 05:16:56;;;;;;;10.07;7.70;;;16.40;99.90;;;;;;5035065;28;20041;-75
2023/06/11 05:19:39;;;;;;;9.45;7.80;;;16.60;99.90;;;;;;5013227;28;20038;-75
2023/06/11 05:22:08;;;;;;;8.30;7.47;;;16.80;99.90;;;;;;5035052;28;20042;-75
2023/06/11 05:24:41;;;;;;;8.40;6.97;;;16.90;99.90;;;;;;5033333;28;20061;-75
2023/06/11 05:27:12;;;;;;;10.45;8.00;;;17.00;99.90;;;;;;5028709;28;20735;-75
2023/06/11 05:29:44;;;;;;;8.98;7.38;;;17.10;99.90;;;;;;5030300;28;20035;-75
2023/06/11 05:32:10;;;;;;;7.53;6.65;;;17.20;99.90;;;;;;5035352;28;20044;-74
2023/06/11 05:34:39;;;;;;;11.23;7.30;;;17.30;99.90;;;;;;5029862;28;20021;-75
2023/06/11 05:37:26;;;;;;;8.82;6.70;;;17.40;99.90;;;;;;5037069;28;20089;-75
2023/06/11 05:39:55;;;;;;;9.40;6.75;;;17.60;99.90;;;;;;5031598;28;20037;-75
2023/06/11 05:42:24;;;;;;;7.07;6.00;;;17.70;99.90;;;;;;5034396;28;20082;-75
2023/06/11 05:44:50;;;;;;;7.35;6.60;;;17.70;99.90;;;;;;5025978;28;20099;-74
2023/06/11 05:47:16;;;;;;;8.55;6.65;;;17.80;99.90;;;;;;5036812;28;20041;-75
2023/06/11 05:49:42;;;;;;;8.52;6.63;;;17.90;99.90;;;;;;5033874;28;21720;-75
2023/06/11 05:52:08;;;;;;;7.88;6.75;;;18.00;99.90;;;;;;5038617;28;20045;-75
2023/06/11 05:54:34;;;;;;;7.85;6.57;;;18.00;99.90;;;;;;5054253;28;20047;-75
2023/06/11 05:56:59;;;;;;;7.30;6.55;;;18.00;99.90;;;;;;5036636;28;20076;-75
2023/06/11 05:59:25;;;;;;;8.07;6.60;;;18.20;99.90;;;;;;5048799;28;20036;-76
2023/06/11 06:01:51;;;;;;;9.05;6.18;;;18.30;99.90;;;;;;5043353;28;20264;-74
2023/06/11 06:04:16;;;;;;;6.85;6.07;;;18.40;99.90;;;;;;5043550;28;20030;-75
2023/06/11 06:06:42;;;;;;;8.43;6.70;;;18.60;99.90;;;;;;5049064;28;20090;-76
2023/06/11 06:09:09;;;;;;;6.85;5.72;;;18.70;99.90;;;;;;5050719;28;20627;-75
2023/06/11 06:11:34;;;;;;;7.60;6.40;;;18.70;99.90;;;;;;5049495;28;20063;-76
2023/06/11 06:14:00;;;;;;;8.77;6.65;;;18.80;99.90;;;;;;5038211;28;20033;-76
2023/06/11 06:16:26;;;;;;;8.93;7.13;;;18.80;99.90;;;;;;5058723;28;20036;-75
2023/06/11 06:18:51;;;;;;;8.27;6.10;;;18.70;99.90;;;;;;5051672;28;20025;-75
2023/06/11 06:21:17;;;;;;;9.02;6.50;;;18.70;99.90;;;;;;5053359;28;20775;-76
2023/06/11 06:23:42;;;;;;;7.95;7.15;;;18.80;99.90;;;;;;5031054;28;20029;-75
2023/06/11 06:26:08;;;;;;;7.55;6.72;;;18.80;99.90;;;;;;5053542;28;20032;-76
2023/06/11 06:28:35;;;;;;;7.15;6.45;;;18.80;99.90;;;;;;5049541;28;20036;-75
2023/06/11 06:31:02;;;;;;;7.72;6.60;;;19.00;99.90;;;;;;5047103;28;20551;-74
2023/06/11 06:33:30;;;;;;;7.47;6.78;;;19.10;99.90;;;;;;5047590;28;20580;-76
2023/06/11 06:35:55;;;;;;;8.13;6.53;;;19.20;99.90;;;;;;5054027;28;20556;-73
2023/06/11 06:38:21;;;;;;;8.57;7.15;;;19.20;99.90;;;;;;5050851;28;20039;-75
2023/06/11 06:40:47;;;;;;;7.35;6.65;;;19.20;99.90;;;;;;5046994;28;20033;-74
2023/06/11 06:43:12;;;;;;;6.93;6.22;;;19.20;99.90;;;;;;5032138;28;20033;-75
2023/06/11 06:45:39;;;;;;;7.32;6.40;;;19.20;99.90;;;;;;5047678;28;20029;-75
2023/06/11 06:48:05;;;;;;;9.60;5.53;;;19.40;99.90;;;;;;5047354;28;20028;-75
2023/06/11 06:50:30;;;;;;;7.28;6.10;;;19.50;99.90;;;;;;5042261;28;20040;-75
2023/06/11 06:52:56;;;;;;;6.30;5.20;;;19.60;99.90;;;;;;5046928;28;20040;-76
2023/06/11 06:55:25;;;;;;;6.45;5.35;;;19.70;99.90;;;;;;5041972;28;20029;-76
2023/06/11 06:57:50;;;;;;;6.60;5.82;;;19.80;99.90;;;;;;5042471;28;20099;-77
2023/06/11 07:00:17;;;;;;;7.55;6.00;;;19.90;99.90;;;;;;5030127;28;20428;-75
2023/06/11 07:02:43;;;;;;;6.57;5.70;;;19.90;99.90;;;;;;5031058;28;20041;-74
2023/06/11 07:05:10;;;;;;;6.43;5.68;;;19.90;99.90;;;;;;5042108;28;20029;-75
2023/06/11 07:07:35;;;;;;;6.50;5.47;;;19.90;99.90;;;;;;5042231;28;20025;-75
2023/06/11 07:10:01;;;;;;;6.15;5.40;;;20.00;99.90;;;;;;5045401;28;20044;-76
2023/06/11 07:12:26;;;;;;;5.93;5.38;;;20.20;99.90;;;;;;5046094;28;20033;-75
2023/06/11 07:14:52;;;;;;;6.10;5.57;;;20.20;99.90;;;;;;5033263;28;20377;-75
2023/06/11 07:17:18;;;;;;;5.85;5.32;;;20.30;99.90;;;;;;5047383;28;20029;-75
2023/06/11 07:19:43;;;;;;;5.35;4.85;;;20.30;99.90;;;;;;5047955;28;20045;-75
2023/06/11 07:22:09;;;;;;;6.72;4.93;;;20.50;99.90;;;;;;5042917;28;20037;-76
2023/06/11 07:24:35;;;;;;;5.65;5.15;;;20.50;99.90;;;;;;5042712;28;20029;-76
2023/06/11 07:27:05;;;;;;;6.70;5.85;;;20.60;99.90;;;;;;5046006;28;20295;-75
2023/06/11 07:29:31;;;;;;;6.03;5.43;;;20.70;99.90;;;;;;5051058;28;20056;-74
2023/06/11 07:31:57;;;;;;;4.80;4.38;;;20.70;99.90;;;;;;5049786;28;20037;-75
2023/06/11 07:34:22;;;;;;;4.90;4.40;;;20.80;99.90;;;;;;5047182;28;20094;-75
2023/06/11 07:36:48;;;;;;;4.55;4.15;;;21.00;99.90;;;;;;5048289;28;20044;-76
2023/06/11 07:39:14;;;;;;;4.88;4.47;;;21.00;99.90;;;;;;5042931;28;20032;-75
2023/06/11 07:41:40;;;;;;;5.78;4.80;;;21.00;99.90;;;;;;5051394;28;20453;-75
2023/06/11 07:44:05;;;;;;;6.43;5.10;;;20.90;99.90;;;;;;5043802;28;20037;-75
2023/06/11 07:46:31;;;;;;;6.07;4.65;;;21.00;99.90;;;;;;5047368;28;20041;-75
2023/06/11 07:48:57;;;;;;;6.00;4.57;;;21.00;99.90;;;;;;5043182;28;20048;-76
2023/06/11 07:51:23;;;;;;;4.95;4.30;;;21.00;99.90;;;;;;5047382;28;20408;-75
2023/06/11 07:53:50;;;;;;;5.18;4.07;;;21.10;99.90;;;;;;5046469;28;20382;-74
2023/06/11 07:56:16;;;;;;;5.20;4.80;;;21.20;99.90;;;;;;5043395;28;20650;-75
2023/06/11 07:58:42;;;;;;;4.78;4.38;;;21.30;99.90;;;;;;5045442;28;20116;-75
2023/06/11 08:01:08;;;;;;;5.18;4.22;;;21.50;99.90;;;;;;5042342;28;20056;-75
2023/06/11 08:03:34;;;;;;;5.55;4.35;;;21.60;99.90;;;;;;5041245;28;20049;-75
2023/06/11 08:05:59;;;;;;;4.75;4.32;;;21.50;99.90;;;;;;5016708;28;20155;-75
2023/06/11 08:08:25;;;;;;;7.47;4.03;;;21.60;99.90;;;;;;5026812;28;20033;-74
2023/06/11 08:10:51;;;;;;;4.10;3.70;;;21.50;99.90;;;;;;5045083;28;20427;-76
2023/06/11 08:13:17;;;;;;;4.78;3.85;;;21.40;99.90;;;;;;5047606;28;20036;-75
2023/06/11 08:15:43;;;;;;;4.70;4.20;;;21.40;99.90;;;;;;5042326;28;20029;-75
2023/06/11 08:18:09;;;;;;;5.75;3.95;;;21.40;99.90;;;;;;5047860;28;20039;-75
2023/06/11 08:20:35;;;;;;;4.13;3.83;;;21.50;99.90;;;;;;5042617;28;20047;-75
2023/06/11 08:23:00;;;;;;;4.45;4.05;;;21.40;99.90;;;;;;5044502;28;20443;-76
2023/06/11 08:25:26;;;;;;;3.70;3.40;;;21.40;99.90;;;;;;5041215;28;20034;-76
2023/06/11 08:27:51;;;;;;;5.68;3.92;;;21.70;99.90;;;;;;5043285;28;20064;-75
2023/06/11 08:30:17;;;;;;;4.10;3.70;;;22.00;99.90;;;;;;5033217;28;20025;-75
2023/06/11 08:32:43;;;;;;;4.60;4.10;;;22.10;99.90;;;;;;5046962;28;20071;-76
2023/06/11 08:35:08;;;;;;;5.20;4.28;;;22.10;99.90;;;;;;5036421;28;20036;-76
2023/06/11 08:37:34;;;;;;;4.75;4.30;;;22.10;99.90;;;;;;5049492;28;20401;-76
2023/06/11 08:40:00;;;;;;;4.40;3.92;;;22.00;99.90;;;;;;5055884;28;20086;-77
2023/06/11 08:42:25;;;;;;;4.93;4.00;;;22.00;99.90;;;;;;5053682;28;20405;-76
2023/06/11 08:44:51;;;;;;;4.35;3.92;;;22.00;99.90;;;;;;5049999;28;20041;-75
2023/06/11 08:47:20;;;;;;;4.63;3.65;;;22.10;99.90;;;;;;5050928;28;20060;-76
2023/06/11 08:49:47;;;;;;;4.32;3.65;;;22.10;99.90;;;;;;5055189;28;20040;-75
2023/06/11 08:52:14;;;;;;;4.10;3.50;;;22.20;99.90;;;;;;5031170;28;20364;-75
2023/06/11 08:54:40;;;;;;;4.70;3.65;;;22.40;99.90;;;;;;5025517;28;20105;-76
2023/06/11 08:57:07;;;;;;;5.57;3.70;;;22.60;99.90;;;;;;5027773;28;20117;-75
2023/06/11 08:59:32;;;;;;;5.50;4.03;;;22.60;99.90;;;;;;5029453;28;20087;-76
2023/06/11 09:01:58;;;;;;;4.40;3.60;;;22.60;99.90;;;;;;5039021;28;20034;-76
2023/06/11 09:04:24;;;;;;;4.65;3.22;;;22.60;99.90;;;;;;5041993;28;20041;-77
2023/06/11 09:06:58;;;;;;;4.63;3.97;;;22.80;99.90;;;;;;5039995;28;20030;-76
2023/06/11 09:09:23;;;;;;;4.25;3.85;;;22.90;99.90;;;;;;5040946;28;20034;-76
2023/06/11 09:11:49;;;;;;;4.25;3.83;;;22.70;99.90;;;;;;5040322;28;20079;-77
2023/06/11 09:14:15;;;;;;;4.53;3.97;;;23.00;99.90;;;;;;5040965;28;20081;-76
2023/06/11 09:16:44;;;;;;;4.22;3.83;;;23.20;99.90;;;;;;5038126;28;20090;-77
2023/06/11 09:19:15;;;;;;;4.93;3.95;;;23.00;99.90;;;;;;5035185;28;20462;-76
2023/06/11 09:21:49;;;;;;;4.82;3.75;;;22.90;99.90;;;;;;5043312;28;20043;-77
2023/06/11 09:24:18;;;;;;;3.90;3.60;;;23.10;99.90;;;;;;5033599;28;20084;-77
2023/06/11 09:26:54;;;;;;;5.28;4.10;;;23.10;99.90;;;;;;5042292;28;20032;-78
2023/06/11 09:29:24;;;;;;;5.75;4.50;;;23.00;99.90;;;;;;5038544;28;20037;-78
2023/06/11 09:32:02;;;;;;;4.78;3.90;;;22.90;99.90;;;;;;5033699;28;20522;-76
2023/06/11 09:34:28;;;;;;;4.65;3.83;;;22.70;99.90;;;;;;5040808;28;20128;-76
2023/06/11 09:36:54;;;;;;;4.30;3.90;;;22.40;99.90;;;;;;5038134;28;20040;-78
2023/06/11 09:39:20;;;;;;;4.45;4.00;;;22.30;99.90;;;;;;5037971;28;20037;-84
2023/06/11 09:41:51;;;;;;;4.00;3.60;;;22.60;99.90;;;;;;5042844;28;20040;-76
2023/06/11 09:44:21;;;;;;;4.47;3.80;;;23.00;99.90;;;;;;5033741;28;20048;-75
2023/06/11 09:46:48;;;;;;;4.70;4.30;;;23.30;99.90;;;;;;5034449;28;20026;-75
2023/06/11 09:49:16;;;;;;;4.30;3.85;;;23.50;99.90;;;;;;5030890;28;20624;-76
2023/06/11 09:51:43;;;;;;;4.47;4.05;;;23.30;99.90;;;;;;5017288;28;20053;-76
2023/06/11 09:54:15;;;;;;;4.70;3.90;;;23.00;99.90;;;;;;5055016;28;20481;-75
2023/06/11 09:56:42;;;;;;;4.85;4.25;;;23.10;99.90;;;;;;5058802;28;20333;-76
2023/06/11 09:59:11;;;;;;;6.38;5.65;;;23.10;99.90;;;;;;5054948;28;20136;-78
2023/06/11 10:01:40;;;;;;;4.50;4.10;;;22.90;99.90;;;;;;5055781;28;20591;-75
2023/06/11 10:04:06;;;;;;;4.57;4.18;;;22.70;99.90;;;;;;5049689;28;20029;-76
2023/06/11 10:06:44;;;;;;;5.05;4.28;;;22.40;99.90;;;;;;5048930;28;20102;-76
2023/06/11 10:09:12;;;;;;;9.70;4.53;;;22.80;99.90;;;;;;5052303;28;20032;-76
2023/06/11 10:11:39;;;;;;;;;;;23.20;99.90;;;;;;5053557;28;20040;-75
2023/06/11 10:14:11;;;;;;;4.37;4.00;;;23.00;99.90;;;;;;5053388;28;19979;-76
2023/06/11 10:16:37;;;;;;;4.00;3.70;;;22.70;99.90;;;;;;5058581;28;20064;-75
2023/06/11 10:19:10;;;;;;;6.47;3.95;;;23.00;99.90;;;;;;5059709;28;20492;-75
2023/06/11 10:21:50;;;;;;;4.22;3.83;;;23.50;99.90;;;;;;5042569;28;20064;-76
2023/06/11 10:24:26;;;;;;;6.63;4.00;;;23.80;99.90;;;;;;5045949;28;20037;-80
2023/06/11 10:27:12;;;;;;;3.83;3.53;;;23.50;99.90;;;;;;5050647;28;20093;-77
2023/06/11 10:29:40;;;;;;;3.88;3.40;;;23.50;99.90;;;;;;5034924;28;20034;-75
2023/06/11 10:32:22;;;;;;;;;;;23.60;99.90;;;;;;5042747;28;20051;-74
2023/06/11 10:35:03;;;;;;;5.25;3.75;;;23.80;99.90;;;;;;5042298;28;19955;-73
2023/06/11 10:37:31;;;;;;;4.18;3.70;;;24.00;99.90;;;;;;5048232;28;20108;-75
2023/06/11 10:39:56;;;;;;;4.28;3.88;;;23.80;99.90;;;;;;5041036;28;20680;-75
2023/06/11 10:42:27;;;;;;;4.10;3.42;;;23.90;99.90;;;;;;5043934;28;20033;-74
2023/06/11 10:44:57;;;;;;;4.40;4.00;;;24.20;99.90;;;;;;5045279;28;20029;-75
2023/06/11 10:47:23;;;;;;;4.32;4.03;;;24.60;99.90;;;;;;5049343;28;20036;-75
2023/06/11 10:49:49;;;;;;;3.92;3.60;;;24.40;99.90;;;;;;5034013;28;20033;-75
2023/06/11 10:52:15;;;;;;;4.40;3.63;;;24.40;99.90;;;;;;5027701;28;20045;-75
2023/06/11 10:54:43;;;;;;;4.35;3.78;;;24.40;99.90;;;;;;5025466;28;20036;-75
2023/06/11 10:57:10;;;;;;;4.43;4.03;;;23.80;99.90;;;;;;5024594;28;20492;-75
2023/06/11 10:59:37;;;;;;;10.57;7.05;;;23.40;99.90;;;;;;5022382;28;20468;-73
2023/06/11 11:02:02;;;;;;;4.35;3.97;;;23.40;99.90;;;;;;5023113;28;20042;-74
2023/06/11 11:04:28;;;;;;;4.65;4.07;;;23.70;99.90;;;;;;5022200;28;20045;-74
2023/06/11 11:07:08;;;;;;;4.30;3.90;;;23.70;99.90;;;;;;5022673;28;20075;-74
2023/06/11 11:09:34;;;;;;;3.90;3.60;;;23.70;99.90;;;;;;5028590;28;20120;-76
2023/06/11 11:12:01;;;;;;;4.32;3.92;;;24.10;99.90;;;;;;5035595;28;20743;-77
2023/06/11 11:14:29;;;;;;;5.30;3.83;;;23.70;99.90;;;;;;5039116;28;20044;-77
2023/06/11 11:17:00;;;;;;;9.70;4.18;;;24.10;99.90;;;;;;5036709;28;20270;-77
2023/06/11 11:19:27;;;;;;;4.82;3.63;;;24.60;99.90;;;;;;5038878;28;20044;-76
2023/06/11 11:21:52;;;;;;;4.47;3.75;;;24.50;99.90;;;;;;5035157;28;20038;-76
2023/06/11 11:24:19;;;;;;;4.25;3.90;;;24.20;99.90;;;;;;5026581;28;20362;-75
2023/06/11 11:26:45;;;;;;;4.25;3.72;;;24.30;99.90;;;;;;5027559;28;20036;-74
2023/06/11 11:29:12;;;;;;;5.75;4.03;;;24.30;99.90;;;;;;5024130;28;20113;-74
2023/06/11 11:31:39;;;;;;;3.72;3.42;;;24.20;99.90;;;;;;5015793;28;20034;-76
2023/06/11 11:34:05;;;;;;;4.40;3.45;;;24.30;99.90;;;;;;5018910;28;20088;-73
2023/06/11 11:36:31;;;;;;;5.30;3.83;;;24.70;99.90;;;;;;5034406;28;20041;-74
2023/06/11 11:39:07;;;;;;;6.88;4.25;;;24.80;99.90;;;;;;5017243;28;20025;-74
2023/06/11 11:41:43;;;;;;;4.25;3.65;;;24.60;99.90;;;;;;5014974;28;20039;-75
2023/06/11 11:44:08;;;;;;;4.30;3.63;;;24.30;99.90;;;;;;5019679;28;20755;-74
2023/06/11 11:46:37;;;;;;;5.65;3.55;;;24.10;99.90;;;;;;5019096;28;20029;-74
2023/06/11 11:49:02;;;;;;;4.18;3.60;;;23.50;99.90;;;;;;5015598;28;20447;-75
2023/06/11 11:51:31;;;;;;;5.28;3.47;;;24.00;99.90;;;;;;5018363;28;20119;-73
2023/06/11 11:53:57;;;;;;;4.43;3.80;;;24.50;99.90;;;;;;5034290;28;20053;-73
2023/06/11 11:56:25;;;;;;;3.88;3.58;;;24.70;99.90;;;;;;5036709;28;20040;-73
2023/06/11 11:58:51;;;;;;;;;;;24.00;99.90;;;;;;5041711;28;20052;-74
2023/06/11 12:01:21;;;;;;;3.58;3.15;;;24.00;99.90;;;;;;5030024;28;19927;-74
2023/06/11 12:04:01;;;;;;;3.90;3.50;;;23.70;99.90;;;;;;5046830;28;20108;-73
2023/06/11 12:06:27;;;;;;;3.78;3.47;;;23.90;99.90;;;;;;5041151;28;20044;-74
2023/06/11 12:08:53;;;;;;;3.67;3.20;;;23.50;99.90;;;;;;5042950;28;20029;-75
2023/06/11 12:11:18;;;;;;;5.05;3.28;;;23.40;99.90;;;;;;5038655;28;20113;-73
2023/06/11 12:13:45;;;;;;;3.60;3.03;;;23.80;99.90;;;;;;5041699;28;20051;-73
2023/06/11 12:16:11;;;;;;;3.65;3.35;;;24.20;99.90;;;;;;5043422;28;20024;-74
2023/06/11 12:18:37;;;;;;;3.40;3.10;;;24.20;99.90;;;;;;5028090;28;20440;-73
2023/06/11 12:21:07;;;;;;;4.30;3.30;;;24.60;99.90;;;;;;5045100;28;20035;-73
2023/06/11 12:23:33;;;;;;;3.88;3.47;;;24.70;99.90;;;;;;5041543;28;20025;-74
2023/06/11 12:26:00;;;;;;;3.78;3.13;;;24.80;99.90;;;;;;5040885;28;20575;-73
2023/06/11 12:28:25;;;;;;;3.78;3.47;;;24.70;99.90;;;;;;5041786;28;20035;-74
2023/06/11 12:30:51;;;;;;;3.45;3.15;;;24.50;99.90;;;;;;5036440;28;20033;-74
2023/06/11 12:33:17;;;;;;;3.50;3.20;;;24.20;99.90;;;;;;5045411;28;20472;-74
2023/06/11 12:35:43;;;;;;;3.40;3.10;;;24.20;99.90;;;;;;5047736;28;20025;-73
2023/06/11 12:38:10;;;;;;;5.47;3.17;;;23.90;99.90;;;;;;5045635;28;20713;-74
2023/06/11 12:40:36;;;;;;;3.10;2.90;;;23.60;99.90;;;;;;5042999;28;20025;-74
2023/06/11 12:43:02;;;;;;;3.45;3.10;;;23.60;99.90;;;;;;5041097;28;20303;-74
2023/06/11 12:45:32;;;;;;;2.90;2.70;;;24.00;99.90;;;;;;5047058;28;20102;-74
2023/06/11 12:47:58;;;;;;;3.78;2.90;;;24.40;99.90;;;;;;5040202;28;20634;-74
2023/06/11 12:50:24;;;;;;;3.67;3.38;;;25.00;99.90;;;;;;5038999;28;20025;-74
2023/06/11 12:52:51;;;;;;;3.20;2.97;;;25.10;99.90;;;;;;5043556;28;20053;-74
2023/06/11 12:55:17;;;;;;;3.20;2.90;;;25.20;99.90;;;;;;5043518;28;20654;-74